createdAt,value
2023-05-08T00:00:13.232Z,27.13
2023-05-08T00:02:41.596Z,28.13
2023-05-08T00:05:08.647Z,28.17
2023-05-08T00:07:37.749Z,27.17
2023-05-08T00:10:05.889Z,27.63
2023-05-08T00:12:32.825Z,29.97
2023-05-08T00:14:59.905Z,28.37
2023-05-08T00:17:26.735Z,26.70
2023-05-08T00:19:53.424Z,28.43
2023-05-08T00:22:20.158Z,29.07
2023-05-08T00:24:46.865Z,29.57
2023-05-08T00:27:13.631Z,28.20
2023-05-08T00:29:40.452Z,29.60
2023-05-08T00:32:10.091Z,30.33
2023-05-08T00:34:36.784Z,29.93
2023-05-08T00:37:03.758Z,27.17
2023-05-08T00:39:30.912Z,30.63
2023-05-08T00:41:57.583Z,30.33
2023-05-08T00:44:24.279Z,29.77
2023-05-08T00:46:51.283Z,28.97
2023-05-08T00:49:18.843Z,30.57
2023-05-08T00:51:52.488Z,30.63
2023-05-08T00:54:19.902Z,30.00
2023-05-08T00:56:50.788Z,29.87
2023-05-08T00:59:20.583Z,30.23
2023-05-08T01:01:48.784Z,30.27
2023-05-08T01:04:16.031Z,29.70
2023-05-08T01:06:42.816Z,29.73
2023-05-08T01:09:09.483Z,31.57
2023-05-08T01:11:47.060Z,30.13
2023-05-08T01:14:17.485Z,33.43
2023-05-08T01:16:56.386Z,31.43
2023-05-08T01:19:35.034Z,32.17
2023-05-08T01:22:25.959Z,33.43
2023-05-08T01:25:27.886Z,33.27
2023-05-08T01:28:31.074Z,31.97
2023-05-08T01:31:32.409Z,31.60
2023-05-08T01:34:06.299Z,33.33
2023-05-08T01:36:53.683Z,33.77
2023-05-08T01:39:22.505Z,31.70
2023-05-08T01:42:04.519Z,33.23
2023-05-08T01:44:38.911Z,33.37
2023-05-08T01:47:08.622Z,33.00
2023-05-08T01:49:38.337Z,33.47
2023-05-08T01:52:10.208Z,32.27
2023-05-08T01:54:44.613Z,34.23
2023-05-08T01:57:13.871Z,35.27
2023-05-08T01:59:43.021Z,28.37
2023-05-08T02:02:11.311Z,33.80
2023-05-08T02:04:39.831Z,33.93
2023-05-08T02:07:08.009Z,34.23
2023-05-08T02:09:35.513Z,36.20
2023-05-08T02:12:03.593Z,35.73
2023-05-08T02:14:31.996Z,33.37
2023-05-08T02:17:01.973Z,31.70
2023-05-08T02:19:30.281Z,34.37
2023-05-08T02:21:58.730Z,33.83
2023-05-08T02:24:26.361Z,35.17
2023-05-08T02:26:54.670Z,34.00
2023-05-08T02:29:23.211Z,35.20
2023-05-08T02:31:50.618Z,35.17
2023-05-08T02:34:18.574Z,34.07
2023-05-08T02:36:45.850Z,35.50
2023-05-08T02:39:15.060Z,35.93
2023-05-08T02:41:42.398Z,36.70
2023-05-08T02:44:09.658Z,36.40
2023-05-08T02:46:47.905Z,34.27
2023-05-08T02:49:20.563Z,38.73
2023-05-08T02:52:21.909Z,39.93
2023-05-08T02:55:20.788Z,37.03
2023-05-08T02:58:04.073Z,36.93
2023-05-08T03:00:42.388Z,38.93
2023-05-08T03:03:24.280Z,36.97
2023-05-08T03:05:56.902Z,39.53
2023-05-08T03:08:29.816Z,39.97
2023-05-08T03:11:01.134Z,38.93
2023-05-08T03:13:31.194Z,36.70
2023-05-08T03:16:02.164Z,40.30
2023-05-08T03:18:36.418Z,36.77
2023-05-08T03:21:04.479Z,36.93
2023-05-08T03:23:35.218Z,37.97
2023-05-08T03:26:03.061Z,37.57
2023-05-08T03:28:31.860Z,36.60
2023-05-08T03:30:59.484Z,35.70
2023-05-08T03:33:28.247Z,35.27
2023-05-08T03:35:56.529Z,37.40
2023-05-08T03:38:23.535Z,35.40
2023-05-08T03:40:50.434Z,38.33
2023-05-08T03:43:19.082Z,38.37
2023-05-08T03:45:46.421Z,36.37
2023-05-08T03:48:14.806Z,37.17
2023-05-08T03:50:42.391Z,35.90
2023-05-08T03:53:09.167Z,36.90
2023-05-08T03:55:36.666Z,36.47
2023-05-08T03:58:26.690Z,35.07
2023-05-08T04:01:22.872Z,36.00
2023-05-08T04:04:07.860Z,35.93
2023-05-08T04:06:50.207Z,35.63
2023-05-08T04:09:31.348Z,35.83
2023-05-08T04:12:05.311Z,33.73
2023-05-08T04:14:42.692Z,33.57
2023-05-08T04:17:11.661Z,34.43
2023-05-08T04:19:43.138Z,36.10
2023-05-08T04:22:11.875Z,34.20
2023-05-08T04:24:44.405Z,35.73
2023-05-08T04:27:12.711Z,33.77
2023-05-08T04:29:40.110Z,35.17
2023-05-08T04:32:08.478Z,36.03
2023-05-08T04:34:36.313Z,34.37
2023-05-08T04:37:03.720Z,33.50
2023-05-08T04:39:30.348Z,36.00
2023-05-08T04:42:02.610Z,34.83
2023-05-08T04:44:29.726Z,35.27
2023-05-08T04:46:56.464Z,35.20
2023-05-08T04:49:23.140Z,36.47
2023-05-08T04:51:49.825Z,34.40
2023-05-08T04:54:16.517Z,36.77
2023-05-08T04:56:43.202Z,34.17
2023-05-08T04:59:10.019Z,35.30
2023-05-08T05:01:36.881Z,37.27
2023-05-08T05:04:03.886Z,35.53
2023-05-08T05:06:33.915Z,36.10
2023-05-08T05:09:00.788Z,35.53
2023-05-08T05:11:27.859Z,34.00
2023-05-08T05:13:54.632Z,34.97
2023-05-08T05:16:21.411Z,33.67
2023-05-08T05:18:48.171Z,33.73
2023-05-08T05:21:14.929Z,33.00
2023-05-08T05:23:42.213Z,31.70
2023-05-08T05:26:10.560Z,32.73
2023-05-08T05:28:37.312Z,31.53
2023-05-08T05:31:04.496Z,33.37
2023-05-08T05:33:31.211Z,32.60
2023-05-08T05:35:58.705Z,32.03
2023-05-08T05:38:25.648Z,28.27
2023-05-08T05:40:52.395Z,29.93
2023-05-08T05:43:19.206Z,28.80
2023-05-08T05:45:45.901Z,30.27
2023-05-08T05:48:12.678Z,29.10
2023-05-08T05:50:39.393Z,25.97
2023-05-08T05:53:06.140Z,25.65
2023-05-08T05:55:33.017Z,22.85
2023-05-08T05:57:59.688Z,23.15
2023-05-08T06:00:26.532Z,20.90
2023-05-08T06:02:53.520Z,21.08
2023-05-08T06:05:20.961Z,19.77
2023-05-08T06:07:47.688Z,19.92
2023-05-08T06:10:14.584Z,20.20
2023-05-08T06:12:41.899Z,18.65
2023-05-08T06:15:09.843Z,19.13
2023-05-08T06:17:36.687Z,19.10
2023-05-08T06:20:04.129Z,18.00
2023-05-08T06:22:30.785Z,17.65
2023-05-08T06:24:57.503Z,19.42
2023-05-08T06:27:24.412Z,18.65
2023-05-08T06:29:53.224Z,18.52
2023-05-08T06:32:20.662Z,19.90
2023-05-08T06:34:47.700Z,19.02
2023-05-08T06:37:14.484Z,18.30
2023-05-08T06:39:41.152Z,18.20
2023-05-08T06:42:08.982Z,18.27
2023-05-08T06:44:35.953Z,18.92
2023-05-08T06:47:02.824Z,18.90
2023-05-08T06:49:29.543Z,18.83
2023-05-08T06:51:57.964Z,18.50
2023-05-08T06:54:24.973Z,20.45
2023-05-08T06:56:53.629Z,18.83
2023-05-08T06:59:21.480Z,19.65
2023-05-08T07:01:48.348Z,18.85
2023-05-08T07:04:15.136Z,18.65
2023-05-08T07:06:41.914Z,19.60
2023-05-08T07:09:09.666Z,20.75
2023-05-08T07:11:36.350Z,20.30
2023-05-08T07:14:03.049Z,19.08
2023-05-08T07:16:29.944Z,18.92
2023-05-08T07:18:56.687Z,19.73
2023-05-08T07:21:23.381Z,19.42
2023-05-08T07:23:51.755Z,18.63
2023-05-08T07:26:18.727Z,19.02
2023-05-08T07:28:45.424Z,19.27
2023-05-08T07:31:12.196Z,19.98
2023-05-08T07:33:38.910Z,20.92
2023-05-08T07:36:05.869Z,19.67
2023-05-08T07:38:32.600Z,20.30
2023-05-08T07:41:01.527Z,37.38
2023-05-08T07:43:28.489Z,22.05
2023-05-08T07:45:55.327Z,21.00
2023-05-08T07:48:22.130Z,21.52
2023-05-08T07:50:52.043Z,19.67
2023-05-08T07:53:18.750Z,19.98
2023-05-08T07:55:45.431Z,19.40
2023-05-08T07:58:12.106Z,20.20
2023-05-08T08:00:39.693Z,20.98
2023-05-08T08:03:07.166Z,21.70
2023-05-08T08:05:33.950Z,20.70
2023-05-08T08:08:00.805Z,21.58
2023-05-08T08:10:27.626Z,22.25
2023-05-08T08:12:54.424Z,23.25
2023-05-08T08:15:21.197Z,23.63
2023-05-08T08:17:48.977Z,22.88
2023-05-08T08:20:15.894Z,21.58
2023-05-08T08:22:42.652Z,22.13
2023-05-08T08:25:09.576Z,23.40
2023-05-08T08:27:36.335Z,22.17
2023-05-08T08:30:16.308Z,22.13
2023-05-08T08:32:44.706Z,23.42
2023-05-08T08:35:12.034Z,24.73
2023-05-08T08:37:38.991Z,22.83
2023-05-08T08:40:06.472Z,23.77
2023-05-08T08:42:33.483Z,22.17
2023-05-08T08:45:01.345Z,22.67
2023-05-08T08:47:29.819Z,22.15
2023-05-08T08:50:02.139Z,23.52
2023-05-08T08:52:36.377Z,24.50
2023-05-08T08:55:08.134Z,24.42
2023-05-08T08:57:39.064Z,24.95
2023-05-08T09:00:09.596Z,26.05
2023-05-08T09:02:36.836Z,27.33
2023-05-08T09:05:04.022Z,27.50
2023-05-08T09:07:30.929Z,24.90
2023-05-08T09:09:57.876Z,26.17
2023-05-08T09:12:24.643Z,24.90
2023-05-08T09:14:51.792Z,23.83
2023-05-08T09:17:18.491Z,26.23
2023-05-08T09:19:45.330Z,24.63
2023-05-08T09:22:12.625Z,24.23
2023-05-08T09:25:00.033Z,23.55
2023-05-08T09:27:29.419Z,23.88
2023-05-08T09:30:04.111Z,25.05
2023-05-08T09:32:32.451Z,22.33
2023-05-08T09:34:59.580Z,22.98
2023-05-08T09:37:27.344Z,24.58
2023-05-08T09:39:55.004Z,23.83
2023-05-08T09:42:23.425Z,24.40
2023-05-08T09:44:52.082Z,22.25
2023-05-08T09:47:21.788Z,25.25
2023-05-08T09:50:09.123Z,22.98
2023-05-08T09:52:37.741Z,24.00
2023-05-08T09:55:11.298Z,23.58
2023-05-08T09:57:40.401Z,25.27
2023-05-08T10:00:09.844Z,26.30
2023-05-08T10:02:38.329Z,25.23
2023-05-08T10:05:23.546Z,26.45
2023-05-08T10:07:50.591Z,26.42
2023-05-08T10:10:32.170Z,27.20
2023-05-08T10:12:59.210Z,26.95
2023-05-08T10:15:29.474Z,28.13
2023-05-08T10:18:07.481Z,24.38
2023-05-08T10:20:42.514Z,26.48
2023-05-08T10:23:14.452Z,24.88
2023-05-08T10:25:46.875Z,25.80
2023-05-08T10:28:37.061Z,27.20
2023-05-08T10:31:05.569Z,26.25
2023-05-08T10:33:34.646Z,26.42
2023-05-08T10:36:01.916Z,28.08
2023-05-08T10:38:30.557Z,28.00
2023-05-08T10:41:01.263Z,27.20
2023-05-08T10:43:29.857Z,25.70
2023-05-08T10:45:57.802Z,26.45
2023-05-08T10:48:32.867Z,28.17
2023-05-08T10:51:18.108Z,28.33
2023-05-08T10:53:55.383Z,28.33
2023-05-08T10:56:28.896Z,29.20
2023-05-08T10:58:57.705Z,29.50
2023-05-08T11:01:28.367Z,27.35
2023-05-08T11:03:56.237Z,29.08
2023-05-08T11:06:52.940Z,30.48
2023-05-08T11:09:30.476Z,32.05
2023-05-08T11:12:22.913Z,30.48
2023-05-08T11:15:06.986Z,27.83
2023-05-08T11:17:34.171Z,27.33
2023-05-08T11:20:03.351Z,29.40
2023-05-08T11:22:32.785Z,31.40
2023-05-08T11:25:02.365Z,31.05
2023-05-08T11:27:46.775Z,31.55
2023-05-08T11:30:25.950Z,32.83
2023-05-08T11:33:05.259Z,27.30
2023-05-08T11:35:48.563Z,32.20
2023-05-08T11:38:35.720Z,33.40
2023-05-08T11:41:10.316Z,33.53
2023-05-08T11:44:14.886Z,34.47
2023-05-08T11:46:52.582Z,29.05
2023-05-08T11:49:26.091Z,38.60
2023-05-08T11:51:55.379Z,39.67
2023-05-08T11:54:22.965Z,40.83
2023-05-08T11:56:50.718Z,40.22
2023-05-08T11:59:18.573Z,42.40
2023-05-08T12:01:59.877Z,42.35
2023-05-08T12:04:46.833Z,41.70
2023-05-08T12:07:13.997Z,43.25
2023-05-08T12:09:40.865Z,39.38
2023-05-08T12:12:07.564Z,40.55
2023-05-08T12:14:34.839Z,39.17
2023-05-08T12:17:02.750Z,39.33
2023-05-08T12:19:29.583Z,36.42
2023-05-08T12:21:57.870Z,35.83
2023-05-08T12:24:26.151Z,37.20
2023-05-08T12:26:56.621Z,35.95
2023-05-08T12:29:24.991Z,35.05
2023-05-08T12:31:52.674Z,31.60
2023-05-08T12:34:20.593Z,34.25
2023-05-08T12:36:47.296Z,31.92
2023-05-08T12:39:18.377Z,31.73
2023-05-08T12:41:49.883Z,33.53
2023-05-08T12:44:24.260Z,33.22
2023-05-08T12:46:56.384Z,30.10
2023-05-08T12:49:32.599Z,29.23
2023-05-08T12:52:07.967Z,32.15
2023-05-08T12:54:39.828Z,29.10
2023-05-08T12:57:14.162Z,29.83
2023-05-08T12:59:42.059Z,29.60
2023-05-08T13:02:21.399Z,30.25
2023-05-08T13:04:48.215Z,33.17
2023-05-08T13:07:15.043Z,34.58
2023-05-08T13:09:59.827Z,34.65
2023-05-08T13:12:26.573Z,36.22
2023-05-08T13:14:53.287Z,34.97
2023-05-08T13:17:20.001Z,37.35
2023-05-08T13:19:46.676Z,34.85
2023-05-08T13:22:13.336Z,35.33
2023-05-08T13:24:40.001Z,36.10
2023-05-08T13:27:06.776Z,37.17
2023-05-08T13:29:33.404Z,36.50
2023-05-08T13:32:00.167Z,37.53
2023-05-08T13:34:27.034Z,37.97
2023-05-08T13:36:53.821Z,36.65
2023-05-08T13:39:20.779Z,35.67
2023-05-08T13:41:47.445Z,37.10
2023-05-08T13:44:14.108Z,37.17
2023-05-08T13:46:40.781Z,36.28
2023-05-08T13:49:07.403Z,35.85
2023-05-08T13:51:34.706Z,34.50
2023-05-08T13:54:01.397Z,37.03
2023-05-08T13:56:30.690Z,35.25
2023-05-08T13:58:57.362Z,36.13
2023-05-08T14:01:27.115Z,36.05
2023-05-08T14:03:55.058Z,36.88
2023-05-08T14:06:22.280Z,35.67
2023-05-08T14:08:51.105Z,35.72
2023-05-08T14:11:19.520Z,35.38
2023-05-08T14:13:46.164Z,34.83
2023-05-08T14:16:14.527Z,33.63
2023-05-08T14:18:41.378Z,34.70
2023-05-08T14:21:08.027Z,34.08
2023-05-08T14:23:36.070Z,33.17
2023-05-08T14:26:02.863Z,34.65
2023-05-08T14:28:29.535Z,31.45
2023-05-08T14:30:56.362Z,29.13
2023-05-08T14:33:23.111Z,30.42
2023-05-08T14:35:49.800Z,29.98
2023-05-08T14:38:16.485Z,30.63
2023-05-08T14:40:43.139Z,32.17
2023-05-08T14:43:09.822Z,29.55
2023-05-08T14:45:36.545Z,24.83
2023-05-08T14:48:03.259Z,26.77
2023-05-08T14:50:30.511Z,30.52
2023-05-08T14:52:57.266Z,25.98
2023-05-08T14:55:24.481Z,24.50
2023-05-08T14:57:51.357Z,28.92
2023-05-08T15:00:18.547Z,29.55
2023-05-08T15:02:45.391Z,28.90
2023-05-08T15:05:19.244Z,29.17
2023-05-08T15:07:47.294Z,28.40
2023-05-08T15:10:13.989Z,29.17
2023-05-08T15:12:40.704Z,30.45
2023-05-08T15:15:07.815Z,29.23
2023-05-08T15:17:36.413Z,28.80
2023-05-08T15:20:04.560Z,27.88
2023-05-08T15:22:31.423Z,28.73
2023-05-08T15:25:02.748Z,28.75
2023-05-08T15:27:29.941Z,28.58
2023-05-08T15:29:56.881Z,28.33
2023-05-08T15:32:24.153Z,28.35
2023-05-08T15:34:51.091Z,33.58
2023-05-08T15:37:17.916Z,34.05
2023-05-08T15:39:44.580Z,34.30
2023-05-08T15:42:11.250Z,34.47
2023-05-08T15:44:54.111Z,36.08
2023-05-08T15:47:23.200Z,36.92
2023-05-08T15:49:51.220Z,37.05
2023-05-08T15:52:19.611Z,38.30
2023-05-08T15:54:47.355Z,34.78
2023-05-08T15:57:14.367Z,34.47
2023-05-08T15:59:41.286Z,37.58
2023-05-08T16:02:08.629Z,34.83
2023-05-08T16:04:35.919Z,40.38
2023-05-08T16:07:02.743Z,39.33
2023-05-08T16:09:29.464Z,37.53
2023-05-08T16:11:56.959Z,34.03
2023-05-08T16:14:23.628Z,37.03
2023-05-08T16:16:51.597Z,38.35
2023-05-08T16:19:18.298Z,33.60
2023-05-08T16:21:48.548Z,35.22
2023-05-08T16:24:15.298Z,33.35
2023-05-08T16:26:42.166Z,38.47
2023-05-08T16:29:08.846Z,33.67
2023-05-08T16:31:35.825Z,34.15
2023-05-08T16:34:02.593Z,33.22
2023-05-08T16:36:29.386Z,35.08
2023-05-08T16:38:56.050Z,33.60
2023-05-08T16:41:23.137Z,32.13
2023-05-08T16:43:49.817Z,31.95
2023-05-08T16:46:30.153Z,31.83
2023-05-08T16:48:57.423Z,30.98
2023-05-08T16:51:24.112Z,29.88
2023-05-08T16:53:50.807Z,30.27
2023-05-08T16:56:17.608Z,31.95
2023-05-08T16:58:44.283Z,33.53
2023-05-08T17:01:11.763Z,32.05
2023-05-08T17:03:38.716Z,27.08
2023-05-08T17:06:09.343Z,28.15
2023-05-08T17:08:36.166Z,26.17
2023-05-08T17:11:03.215Z,28.88
2023-05-08T17:13:30.143Z,27.65
2023-05-08T17:15:57.785Z,28.95
2023-05-08T17:18:24.945Z,30.23
2023-05-08T17:20:51.696Z,29.95
2023-05-08T17:23:18.415Z,29.08
2023-05-08T17:25:45.275Z,28.25
2023-05-08T17:28:12.079Z,29.00
2023-05-08T17:30:38.804Z,27.70
2023-05-08T17:33:07.222Z,28.48
2023-05-08T17:35:34.288Z,30.00
2023-05-08T17:38:01.089Z,31.10
2023-05-08T17:40:28.860Z,32.60
2023-05-08T17:42:55.679Z,31.45
2023-05-08T17:45:22.394Z,26.17
2023-05-08T17:47:49.400Z,26.48
2023-05-08T17:50:16.250Z,25.35
2023-05-08T17:52:43.030Z,24.48
2023-05-08T17:55:10.208Z,26.20
2023-05-08T17:57:36.859Z,25.35
2023-05-08T18:00:06.061Z,26.08
2023-05-08T18:02:32.905Z,27.27
2023-05-08T18:04:59.644Z,26.50
2023-05-08T18:07:26.299Z,27.13
2023-05-08T18:09:52.974Z,28.70
2023-05-08T18:12:19.689Z,29.17
2023-05-08T18:14:47.832Z,29.00
2023-05-08T18:17:22.427Z,28.73
2023-05-08T18:19:49.529Z,26.88
2023-05-08T18:22:16.508Z,26.38
2023-05-08T18:24:45.579Z,28.60
2023-05-08T18:27:12.361Z,31.55
2023-05-08T18:29:39.236Z,30.33
2023-05-08T18:32:06.028Z,33.40
2023-05-08T18:34:33.648Z,28.08
2023-05-08T18:37:00.435Z,27.90
2023-05-08T18:39:27.145Z,31.23
2023-05-08T18:41:53.834Z,29.83
2023-05-08T18:44:20.523Z,28.48
2023-05-08T18:46:47.300Z,29.13
2023-05-08T18:49:14.006Z,30.05
2023-05-08T18:51:40.709Z,30.35
2023-05-08T18:54:07.393Z,30.33
2023-05-08T18:56:37.068Z,31.63
2023-05-08T18:59:03.793Z,28.50
2023-05-08T19:01:30.578Z,26.55
2023-05-08T19:03:57.376Z,24.58
2023-05-08T19:06:24.095Z,25.55
2023-05-08T19:08:52.200Z,26.67
2023-05-08T19:11:19.058Z,26.88
2023-05-08T19:13:52.507Z,27.30
2023-05-08T19:16:19.250Z,27.08
2023-05-08T19:18:45.932Z,27.35
2023-05-08T19:21:12.597Z,29.02
2023-05-08T19:23:39.289Z,28.35
2023-05-08T19:26:06.197Z,31.67
2023-05-08T19:28:33.033Z,34.88
2023-05-08T19:30:59.723Z,35.72
2023-05-08T19:33:26.651Z,36.78
2023-05-08T19:35:53.312Z,34.20
2023-05-08T19:38:20.105Z,34.80
2023-05-08T19:40:56.582Z,35.75
2023-05-08T19:43:25.862Z,33.78
2023-05-08T19:45:52.622Z,34.13
2023-05-08T19:48:20.088Z,37.13
2023-05-08T19:50:47.193Z,39.75
2023-05-08T19:53:14.323Z,38.45
2023-05-08T19:55:41.040Z,37.80
2023-05-08T19:58:07.956Z,37.88
2023-05-08T20:00:34.847Z,39.15
2023-05-08T20:03:01.676Z,38.20
2023-05-08T20:05:28.683Z,37.97
2023-05-08T20:07:55.581Z,39.45
2023-05-08T20:10:22.740Z,38.72
2023-05-08T20:12:49.811Z,39.00
2023-05-08T20:15:16.586Z,41.03
2023-05-08T20:17:43.288Z,40.28
2023-05-08T20:20:10.733Z,41.42
2023-05-08T20:22:46.479Z,39.30
2023-05-08T20:25:13.243Z,38.38
2023-05-08T20:27:40.397Z,40.08
2023-05-08T20:30:07.883Z,40.50
2023-05-08T20:32:34.633Z,40.15
2023-05-08T20:35:01.790Z,38.95
2023-05-08T20:37:28.590Z,39.35
2023-05-08T20:39:55.399Z,40.05
2023-05-08T20:42:22.234Z,38.85
2023-05-08T20:44:48.936Z,38.03
2023-05-08T20:47:15.660Z,40.92
2023-05-08T20:49:42.360Z,40.75
2023-05-08T20:52:08.996Z,37.15
2023-05-08T20:54:35.826Z,41.03
2023-05-08T20:57:02.594Z,40.88
2023-05-08T20:59:29.252Z,43.00
2023-05-08T21:01:56.321Z,38.03
2023-05-08T21:04:23.176Z,41.30
2023-05-08T21:06:51.918Z,41.65
2023-05-08T21:09:21.064Z,40.42
2023-05-08T21:11:47.715Z,41.30
2023-05-08T21:14:14.552Z,40.97
2023-05-08T21:16:41.963Z,41.03
2023-05-08T21:19:11.209Z,39.22
2023-05-08T21:21:37.986Z,41.08
2023-05-08T21:24:05.325Z,40.63
2023-05-08T21:26:32.076Z,40.55
2023-05-08T21:29:00.148Z,38.72
2023-05-08T21:31:28.806Z,40.25
2023-05-08T21:33:55.681Z,40.22
2023-05-08T21:36:22.585Z,40.22
2023-05-08T21:38:49.265Z,40.63
2023-05-08T21:41:16.253Z,42.63
2023-05-08T21:43:42.914Z,40.33
2023-05-08T21:46:09.738Z,38.47
2023-05-08T21:48:36.892Z,39.22
2023-05-08T21:51:06.271Z,42.17
2023-05-08T21:53:33.052Z,40.63
2023-05-08T21:55:59.834Z,40.28
2023-05-08T21:58:26.592Z,38.85
2023-05-08T22:00:53.397Z,40.85
2023-05-08T22:03:20.231Z,39.00
2023-05-08T22:05:47.117Z,36.53
2023-05-08T22:08:13.911Z,39.00
2023-05-08T22:10:40.796Z,37.65
2023-05-08T22:13:07.761Z,38.20
2023-05-08T22:15:34.830Z,38.40
2023-05-08T22:18:02.789Z,37.22
2023-05-08T22:20:29.854Z,39.78
2023-05-08T22:22:57.632Z,37.88
2023-05-08T22:25:25.247Z,36.97
2023-05-08T22:27:52.216Z,39.78
2023-05-08T22:30:22.027Z,39.08
2023-05-08T22:32:57.231Z,37.25
2023-05-08T22:35:25.864Z,38.20
2023-05-08T22:37:53.325Z,37.42
2023-05-08T22:40:21.481Z,39.55
2023-05-08T22:42:51.259Z,38.95
2023-05-08T22:45:18.285Z,39.33
2023-05-08T22:47:45.422Z,38.83
2023-05-08T22:50:12.458Z,38.60
2023-05-08T22:52:39.582Z,39.30
2023-05-08T22:55:07.011Z,38.45
2023-05-08T22:57:33.887Z,39.13
2023-05-08T23:00:00.784Z,37.08
2023-05-08T23:02:36.633Z,39.13
2023-05-08T23:05:03.832Z,37.88
2023-05-08T23:07:30.766Z,38.22
2023-05-08T23:09:57.626Z,37.30
2023-05-08T23:12:24.385Z,37.22
2023-05-08T23:14:51.773Z,38.63
2023-05-08T23:17:18.931Z,38.20
2023-05-08T23:19:45.854Z,40.88
2023-05-08T23:22:12.604Z,40.30
2023-05-08T23:24:39.634Z,39.63
2023-05-08T23:27:06.383Z,38.00
2023-05-08T23:29:33.064Z,38.00
2023-05-08T23:32:00.181Z,37.22
2023-05-08T23:34:26.889Z,37.55
2023-05-08T23:36:53.666Z,38.25
2023-05-08T23:39:20.540Z,38.05
2023-05-08T23:41:47.577Z,38.60
2023-05-08T23:44:15.199Z,39.60
2023-05-08T23:46:41.944Z,38.95
2023-05-08T23:49:08.718Z,39.70
2023-05-08T23:51:35.502Z,37.67
2023-05-08T23:54:02.322Z,39.28
2023-05-08T23:56:29.964Z,39.22
2023-05-08T23:58:56.948Z,38.03
